PTSA/KSA METAR and TAF weather

Enter ICAO airport designator
Station Type Date Time Source
PTSA METAR 2019/08/21 23:50 UTC NOAA

PTSA 212350Z 19010KT 10SM SCT018 BKN130 OVC300 30/25 A2982 RMK LAST


Station Type Date Time Source
PTSA Decoded METAR 2019/08/21 23:50 UTC NOAA

Station name not available
Aug 21, 2019 - 07:50 PM EDT / 2019.08.21 2350 UTC
Wind: from the S (190 degrees) at 12 MPH (10 KT):0
Visibility: 10 mile(s):0
Sky conditions: overcast
Temperature: 86 F (30 C)
Heat index: 96.8 F (36.0 C):1
Dew Point: 77 F (25 C)
Relative Humidity: 74%
Pressure (altimeter): 29.82 in. Hg (1009 hPa)
ob: PTSA 212350Z 19010KT 10SM SCT018 BKN130 OVC300 30/25 A2982 RMK LAST
cycle: 0

Station Type Date Time Source
PTSA TAF 2019/08/21 00:28 UTC NOAA

TAF PTSA 212321Z 2200/2224 23009KT P6SM VCSH SCT020 BKN130 OVC300
TEMPO 2201/2205 -SHRA BKN018 BKN100

Example: see airport list